sensor_id;sensor_type;location;lat;lon;timestamp;P1;durP1;ratioP1;P2;durP2;ratioP2
12206;SDS011;6166;42.806;23.408;2022-08-03T00:01:45;1.50;;;1.40;;
12206;SDS011;6166;42.806;23.408;2022-08-03T00:04:12;1.40;;;1.38;;
12206;SDS011;6166;42.806;23.408;2022-08-03T00:06:40;1.67;;;1.60;;
12206;SDS011;6166;42.806;23.408;2022-08-03T00:09:07;2.13;;;1.58;;
12206;SDS011;6166;42.806;23.408;2022-08-03T00:11:34;2.03;;;1.50;;
12206;SDS011;6166;42.806;23.408;2022-08-03T00:14:02;1.40;;;1.40;;
12206;SDS011;6166;42.806;23.408;2022-08-03T00:16:29;1.70;;;1.60;;
12206;SDS011;6166;42.806;23.408;2022-08-03T00:18:55;1.65;;;1.40;;
12206;SDS011;6166;42.806;23.408;2022-08-03T00:21:22;1.67;;;1.58;;
12206;SDS011;6166;42.806;23.408;2022-08-03T00:23:50;1.73;;;1.63;;
12206;SDS011;6166;42.806;23.408;2022-08-03T00:26:17;2.00;;;1.80;;
12206;SDS011;6166;42.806;23.408;2022-08-03T00:28:44;2.85;;;1.85;;
12206;SDS011;6166;42.806;23.408;2022-08-03T00:31:10;1.92;;;1.83;;
12206;SDS011;6166;42.806;23.408;2022-08-03T00:33:37;1.80;;;1.70;;
12206;SDS011;6166;42.806;23.408;2022-08-03T00:36:04;1.63;;;1.52;;
12206;SDS011;6166;42.806;23.408;2022-08-03T00:38:31;1.73;;;1.58;;
12206;SDS011;6166;42.806;23.408;2022-08-03T00:40:59;1.83;;;1.73;;
12206;SDS011;6166;42.806;23.408;2022-08-03T00:43:25;2.28;;;1.80;;
12206;SDS011;6166;42.806;23.408;2022-08-03T00:45:52;2.08;;;1.98;;
12206;SDS011;6166;42.806;23.408;2022-08-03T00:48:20;2.00;;;1.90;;
12206;SDS011;6166;42.806;23.408;2022-08-03T00:50:46;1.50;;;1.50;;
12206;SDS011;6166;42.806;23.408;2022-08-03T00:53:13;1.98;;;1.88;;
12206;SDS011;6166;42.806;23.408;2022-08-03T00:55:40;1.92;;;1.80;;
12206;SDS011;6166;42.806;23.408;2022-08-03T00:58:08;2.00;;;1.90;;
12206;SDS011;6166;42.806;23.408;2022-08-03T01:00:36;2.28;;;2.08;;
12206;SDS011;6166;42.806;23.408;2022-08-03T01:03:05;2.90;;;2.35;;
12206;SDS011;6166;42.806;23.408;2022-08-03T01:05:33;2.00;;;1.90;;
12206;SDS011;6166;42.806;23.408;2022-08-03T01:08:07;2.15;;;2.05;;
12206;SDS011;6166;42.806;23.408;2022-08-03T01:10:45;2.30;;;2.08;;
12206;SDS011;6166;42.806;23.408;2022-08-03T01:13:22;2.40;;;2.30;;
12206;SDS011;6166;42.806;23.408;2022-08-03T01:15:55;2.20;;;2.10;;
12206;SDS011;6166;42.806;23.408;2022-08-03T01:18:29;1.90;;;1.80;;
12206;SDS011;6166;42.806;23.408;2022-08-03T01:21:03;2.00;;;1.90;;
12206;SDS011;6166;42.806;23.408;2022-08-03T01:23:45;2.50;;;2.30;;
12206;SDS011;6166;42.806;23.408;2022-08-03T01:26:26;2.40;;;2.20;;
12206;SDS011;6166;42.806;23.408;2022-08-03T01:32:09;2.53;;;2.38;;
12206;SDS011;6166;42.806;23.408;2022-08-03T01:34:40;2.25;;;2.15;;
12206;SDS011;6166;42.806;23.408;2022-08-03T01:37:12;2.42;;;2.22;;
12206;SDS011;6166;42.806;23.408;2022-08-03T01:39:43;2.05;;;1.95;;
12206;SDS011;6166;42.806;23.408;2022-08-03T01:42:10;2.20;;;2.10;;
12206;SDS011;6166;42.806;23.408;2022-08-03T01:44:40;2.10;;;2.00;;
12206;SDS011;6166;42.806;23.408;2022-08-03T01:47:10;2.58;;;2.40;;
12206;SDS011;6166;42.806;23.408;2022-08-03T01:49:38;2.45;;;2.30;;
12206;SDS011;6166;42.806;23.408;2022-08-03T01:52:08;2.53;;;2.20;;
12206;SDS011;6166;42.806;23.408;2022-08-03T01:54:41;2.72;;;2.53;;
12206;SDS011;6166;42.806;23.408;2022-08-03T01:57:09;2.50;;;2.30;;
12206;SDS011;6166;42.806;23.408;2022-08-03T01:59:36;2.67;;;2.33;;
12206;SDS011;6166;42.806;23.408;2022-08-03T02:02:05;2.38;;;2.17;;
12206;SDS011;6166;42.806;23.408;2022-08-03T02:04:35;2.45;;;2.25;;
12206;SDS011;6166;42.806;23.408;2022-08-03T02:07:03;2.78;;;2.10;;
12206;SDS011;6166;42.806;23.408;2022-08-03T02:09:33;4.40;;;2.50;;
12206;SDS011;6166;42.806;23.408;2022-08-03T02:12:05;2.33;;;2.22;;
12206;SDS011;6166;42.806;23.408;2022-08-03T02:14:34;2.92;;;2.72;;
12206;SDS011;6166;42.806;23.408;2022-08-03T02:17:02;2.65;;;2.50;;
12206;SDS011;6166;42.806;23.408;2022-08-03T02:19:32;3.40;;;2.50;;
12206;SDS011;6166;42.806;23.408;2022-08-03T02:22:02;2.33;;;2.22;;
12206;SDS011;6166;42.806;23.408;2022-08-03T02:24:30;2.45;;;2.30;;
12206;SDS011;6166;42.806;23.408;2022-08-03T02:26:57;2.55;;;2.38;;
12206;SDS011;6166;42.806;23.408;2022-08-03T02:29:27;2.58;;;2.17;;
12206;SDS011;6166;42.806;23.408;2022-08-03T02:31:58;2.47;;;2.28;;
12206;SDS011;6166;42.806;23.408;2022-08-03T02:34:28;3.00;;;2.80;;
12206;SDS011;6166;42.806;23.408;2022-08-03T02:37:00;2.92;;;2.55;;
12206;SDS011;6166;42.806;23.408;2022-08-03T02:39:30;2.50;;;2.30;;
12206;SDS011;6166;42.806;23.408;2022-08-03T02:41:59;2.97;;;2.75;;
12206;SDS011;6166;42.806;23.408;2022-08-03T02:44:29;4.67;;;3.00;;
12206;SDS011;6166;42.806;23.408;2022-08-03T02:47:00;2.83;;;2.60;;
12206;SDS011;6166;42.806;23.408;2022-08-03T02:49:33;2.63;;;2.45;;
12206;SDS011;6166;42.806;23.408;2022-08-03T02:52:03;2.55;;;2.35;;
12206;SDS011;6166;42.806;23.408;2022-08-03T02:54:33;3.00;;;2.80;;
12206;SDS011;6166;42.806;23.408;2022-08-03T02:57:03;2.42;;;2.22;;
12206;SDS011;6166;42.806;23.408;2022-08-03T02:59:33;2.45;;;2.30;;
12206;SDS011;6166;42.806;23.408;2022-08-03T03:02:00;2.63;;;2.43;;
12206;SDS011;6166;42.806;23.408;2022-08-03T03:04:28;2.65;;;2.40;;
12206;SDS011;6166;42.806;23.408;2022-08-03T03:06:57;2.95;;;2.75;;
12206;SDS011;6166;42.806;23.408;2022-08-03T03:09:26;2.97;;;2.70;;
12206;SDS011;6166;42.806;23.408;2022-08-03T03:11:53;3.08;;;2.72;;
12206;SDS011;6166;42.806;23.408;2022-08-03T03:14:21;2.60;;;2.50;;
12206;SDS011;6166;42.806;23.408;2022-08-03T03:16:50;2.90;;;2.63;;
12206;SDS011;6166;42.806;23.408;2022-08-03T03:19:18;3.10;;;2.90;;
12206;SDS011;6166;42.806;23.408;2022-08-03T03:21:46;2.83;;;2.63;;
12206;SDS011;6166;42.806;23.408;2022-08-03T03:24:13;2.75;;;2.42;;
12206;SDS011;6166;42.806;23.408;2022-08-03T03:26:42;2.85;;;2.65;;
12206;SDS011;6166;42.806;23.408;2022-08-03T03:29:10;2.53;;;2.42;;
12206;SDS011;6166;42.806;23.408;2022-08-03T03:31:37;2.55;;;2.35;;
12206;SDS011;6166;42.806;23.408;2022-08-03T03:34:05;3.27;;;2.73;;
12206;SDS011;6166;42.806;23.408;2022-08-03T03:36:32;2.63;;;2.43;;
12206;SDS011;6166;42.806;23.408;2022-08-03T03:38:59;3.10;;;2.80;;
12206;SDS011;6166;42.806;23.408;2022-08-03T03:41:26;3.00;;;2.80;;
12206;SDS011;6166;42.806;23.408;2022-08-03T03:44:02;2.83;;;2.63;;
12206;SDS011;6166;42.806;23.408;2022-08-03T03:46:31;3.40;;;2.63;;
12206;SDS011;6166;42.806;23.408;2022-08-03T03:48:58;2.80;;;2.67;;
12206;SDS011;6166;42.806;23.408;2022-08-03T03:51:25;3.15;;;2.72;;
12206;SDS011;6166;42.806;23.408;2022-08-03T03:53:55;2.87;;;2.67;;
12206;SDS011;6166;42.806;23.408;2022-08-03T03:56:22;2.78;;;2.58;;
12206;SDS011;6166;42.806;23.408;2022-08-03T03:58:49;3.42;;;2.42;;
12206;SDS011;6166;42.806;23.408;2022-08-03T04:01:20;2.45;;;2.25;;
12206;SDS011;6166;42.806;23.408;2022-08-03T04:03:53;2.80;;;2.60;;
12206;SDS011;6166;42.806;23.408;2022-08-03T04:06:46;3.20;;;2.60;;
12206;SDS011;6166;42.806;23.408;2022-08-03T04:09:30;2.63;;;2.42;;
12206;SDS011;6166;42.806;23.408;2022-08-03T04:12:16;2.40;;;2.30;;
12206;SDS011;6166;42.806;23.408;2022-08-03T04:14:44;2.72;;;2.30;;
12206;SDS011;6166;42.806;23.408;2022-08-03T04:17:15;3.83;;;2.80;;
12206;SDS011;6166;42.806;23.408;2022-08-03T04:19:44;2.47;;;2.35;;
12206;SDS011;6166;42.806;23.408;2022-08-03T04:22:13;2.60;;;2.40;;
12206;SDS011;6166;42.806;23.408;2022-08-03T04:24:45;3.28;;;2.58;;
12206;SDS011;6166;42.806;23.408;2022-08-03T04:27:16;3.38;;;2.30;;
12206;SDS011;6166;42.806;23.408;2022-08-03T04:29:48;2.78;;;2.58;;
12206;SDS011;6166;42.806;23.408;2022-08-03T04:32:19;3.20;;;2.53;;
12206;SDS011;6166;42.806;23.408;2022-08-03T04:34:49;2.90;;;2.70;;
12206;SDS011;6166;42.806;23.408;2022-08-03T04:37:17;2.50;;;2.30;;
12206;SDS011;6166;42.806;23.408;2022-08-03T04:39:49;4.18;;;2.50;;
12206;SDS011;6166;42.806;23.408;2022-08-03T04:42:18;2.92;;;2.60;;
12206;SDS011;6166;42.806;23.408;2022-08-03T04:44:47;2.97;;;2.63;;
12206;SDS011;6166;42.806;23.408;2022-08-03T04:47:15;4.80;;;2.72;;
12206;SDS011;6166;42.806;23.408;2022-08-03T04:49:43;2.65;;;2.45;;
12206;SDS011;6166;42.806;23.408;2022-08-03T04:52:11;2.83;;;2.63;;
12206;SDS011;6166;42.806;23.408;2022-08-03T04:54:38;2.30;;;2.20;;
12206;SDS011;6166;42.806;23.408;2022-08-03T04:57:05;2.30;;;2.20;;
12206;SDS011;6166;42.806;23.408;2022-08-03T04:59:32;2.65;;;2.45;;
12206;SDS011;6166;42.806;23.408;2022-08-03T05:01:59;2.15;;;1.98;;
12206;SDS011;6166;42.806;23.408;2022-08-03T05:04:28;2.20;;;2.10;;
12206;SDS011;6166;42.806;23.408;2022-08-03T05:06:59;2.42;;;2.22;;
12206;SDS011;6166;42.806;23.408;2022-08-03T05:09:26;2.45;;;2.15;;
12206;SDS011;6166;42.806;23.408;2022-08-03T05:11:53;2.40;;;2.30;;
12206;SDS011;6166;42.806;23.408;2022-08-03T05:14:19;3.10;;;2.50;;
12206;SDS011;6166;42.806;23.408;2022-08-03T05:16:46;2.45;;;2.20;;
12206;SDS011;6166;42.806;23.408;2022-08-03T05:19:13;3.03;;;2.58;;
12206;SDS011;6166;42.806;23.408;2022-08-03T05:21:40;3.65;;;2.78;;
12206;SDS011;6166;42.806;23.408;2022-08-03T05:24:08;2.80;;;2.60;;
12206;SDS011;6166;42.806;23.408;2022-08-03T05:26:34;3.08;;;2.47;;
12206;SDS011;6166;42.806;23.408;2022-08-03T05:29:01;3.05;;;2.85;;
12206;SDS011;6166;42.806;23.408;2022-08-03T05:31:29;2.90;;;2.70;;
12206;SDS011;6166;42.806;23.408;2022-08-03T05:33:55;3.30;;;3.10;;
12206;SDS011;6166;42.806;23.408;2022-08-03T05:36:22;3.63;;;3.42;;
12206;SDS011;6166;42.806;23.408;2022-08-03T05:38:49;4.55;;;3.00;;
12206;SDS011;6166;42.806;23.408;2022-08-03T05:41:17;3.78;;;3.53;;
12206;SDS011;6166;42.806;23.408;2022-08-03T05:43:44;4.10;;;3.58;;
12206;SDS011;6166;42.806;23.408;2022-08-03T05:46:11;4.15;;;3.72;;
12206;SDS011;6166;42.806;23.408;2022-08-03T05:48:38;3.55;;;3.25;;
12206;SDS011;6166;42.806;23.408;2022-08-03T05:51:05;3.63;;;3.40;;
12206;SDS011;6166;42.806;23.408;2022-08-03T05:53:35;4.00;;;3.70;;
12206;SDS011;6166;42.806;23.408;2022-08-03T05:56:02;3.88;;;3.58;;
12206;SDS011;6166;42.806;23.408;2022-08-03T05:58:31;3.63;;;3.40;;
12206;SDS011;6166;42.806;23.408;2022-08-03T06:00:57;4.88;;;3.53;;
12206;SDS011;6166;42.806;23.408;2022-08-03T06:03:26;4.05;;;3.58;;
12206;SDS011;6166;42.806;23.408;2022-08-03T06:05:53;3.90;;;3.50;;
12206;SDS011;6166;42.806;23.408;2022-08-03T06:08:20;5.68;;;3.92;;
12206;SDS011;6166;42.806;23.408;2022-08-03T06:10:47;4.50;;;4.10;;
12206;SDS011;6166;42.806;23.408;2022-08-03T06:13:14;5.20;;;3.80;;
12206;SDS011;6166;42.806;23.408;2022-08-03T06:15:42;4.35;;;4.05;;
12206;SDS011;6166;42.806;23.408;2022-08-03T06:18:09;4.30;;;4.00;;
12206;SDS011;6166;42.806;23.408;2022-08-03T06:20:36;4.75;;;3.88;;
12206;SDS011;6166;42.806;23.408;2022-08-03T06:23:02;3.97;;;3.67;;
12206;SDS011;6166;42.806;23.408;2022-08-03T06:25:29;3.80;;;3.50;;
12206;SDS011;6166;42.806;23.408;2022-08-03T06:27:56;3.58;;;3.28;;
12206;SDS011;6166;42.806;23.408;2022-08-03T06:30:23;4.15;;;3.75;;
12206;SDS011;6166;42.806;23.408;2022-08-03T06:32:51;4.35;;;4.03;;
12206;SDS011;6166;42.806;23.408;2022-08-03T06:35:18;4.38;;;3.83;;
12206;SDS011;6166;42.806;23.408;2022-08-03T06:37:46;3.90;;;3.60;;
12206;SDS011;6166;42.806;23.408;2022-08-03T06:40:14;4.50;;;3.78;;
12206;SDS011;6166;42.806;23.408;2022-08-03T06:42:43;3.88;;;3.60;;
12206;SDS011;6166;42.806;23.408;2022-08-03T06:45:10;3.00;;;2.80;;
12206;SDS011;6166;42.806;23.408;2022-08-03T06:47:38;3.47;;;3.28;;
12206;SDS011;6166;42.806;23.408;2022-08-03T06:50:08;3.85;;;3.20;;
12206;SDS011;6166;42.806;23.408;2022-08-03T06:52:37;5.13;;;3.05;;
12206;SDS011;6166;42.806;23.408;2022-08-03T06:55:04;4.85;;;3.65;;
12206;SDS011;6166;42.806;23.408;2022-08-03T06:57:35;3.97;;;3.28;;
12206;SDS011;6166;42.806;23.408;2022-08-03T07:00:02;3.85;;;3.55;;
12206;SDS011;6166;42.806;23.408;2022-08-03T07:02:33;5.50;;;3.55;;
12206;SDS011;6166;42.806;23.408;2022-08-03T07:05:00;4.30;;;3.33;;
12206;SDS011;6166;42.806;23.408;2022-08-03T07:07:28;3.95;;;3.40;;
12206;SDS011;6166;42.806;23.408;2022-08-03T07:09:58;3.22;;;2.92;;
12206;SDS011;6166;42.806;23.408;2022-08-03T07:12:25;3.28;;;2.75;;
12206;SDS011;6166;42.806;23.408;2022-08-03T07:14:53;3.58;;;2.97;;
12206;SDS011;6166;42.806;23.408;2022-08-03T07:17:20;3.30;;;3.00;;
12206;SDS011;6166;42.806;23.408;2022-08-03T07:19:47;3.92;;;3.63;;
12206;SDS011;6166;42.806;23.408;2022-08-03T07:22:14;2.97;;;2.78;;
12206;SDS011;6166;42.806;23.408;2022-08-03T07:24:42;6.38;;;2.55;;
12206;SDS011;6166;42.806;23.408;2022-08-03T07:27:08;2.90;;;2.58;;
12206;SDS011;6166;42.806;23.408;2022-08-03T07:29:35;3.00;;;2.80;;
12206;SDS011;6166;42.806;23.408;2022-08-03T07:32:03;2.88;;;2.67;;
12206;SDS011;6166;42.806;23.408;2022-08-03T07:34:30;3.40;;;3.00;;
12206;SDS011;6166;42.806;23.408;2022-08-03T07:36:57;4.25;;;2.97;;
12206;SDS011;6166;42.806;23.408;2022-08-03T07:39:24;3.42;;;2.63;;
12206;SDS011;6166;42.806;23.408;2022-08-03T07:41:52;2.85;;;2.42;;
12206;SDS011;6166;42.806;23.408;2022-08-03T07:44:19;2.55;;;2.40;;
12206;SDS011;6166;42.806;23.408;2022-08-03T07:46:46;2.90;;;2.70;;
12206;SDS011;6166;42.806;23.408;2022-08-03T07:49:14;2.78;;;2.58;;
12206;SDS011;6166;42.806;23.408;2022-08-03T07:51:41;3.10;;;2.90;;
12206;SDS011;6166;42.806;23.408;2022-08-03T07:54:08;6.40;;;2.75;;
12206;SDS011;6166;42.806;23.408;2022-08-03T07:56:35;4.00;;;3.03;;
12206;SDS011;6166;42.806;23.408;2022-08-03T07:59:03;5.47;;;3.13;;
12206;SDS011;6166;42.806;23.408;2022-08-03T08:04:02;5.00;;;2.65;;
12206;SDS011;6166;42.806;23.408;2022-08-03T08:06:29;3.13;;;2.92;;
12206;SDS011;6166;42.806;23.408;2022-08-03T08:08:57;3.25;;;2.70;;
12206;SDS011;6166;42.806;23.408;2022-08-03T08:11:26;3.28;;;2.88;;
12206;SDS011;6166;42.806;23.408;2022-08-03T08:13:53;4.15;;;2.45;;
12206;SDS011;6166;42.806;23.408;2022-08-03T08:16:29;3.70;;;3.00;;
12206;SDS011;6166;42.806;23.408;2022-08-03T08:18:55;3.08;;;2.83;;
12206;SDS011;6166;42.806;23.408;2022-08-03T08:21:22;2.38;;;2.17;;
12206;SDS011;6166;42.806;23.408;2022-08-03T08:23:49;2.35;;;2.25;;
12206;SDS011;6166;42.806;23.408;2022-08-03T08:26:16;2.47;;;2.25;;
12206;SDS011;6166;42.806;23.408;2022-08-03T08:28:44;2.83;;;2.38;;
12206;SDS011;6166;42.806;23.408;2022-08-03T08:31:12;2.80;;;2.60;;
12206;SDS011;6166;42.806;23.408;2022-08-03T08:33:40;2.10;;;2.00;;
12206;SDS011;6166;42.806;23.408;2022-08-03T08:36:06;2.83;;;2.40;;
12206;SDS011;6166;42.806;23.408;2022-08-03T08:38:33;2.30;;;2.10;;
12206;SDS011;6166;42.806;23.408;2022-08-03T08:41:00;2.05;;;1.95;;
12206;SDS011;6166;42.806;23.408;2022-08-03T08:43:27;2.83;;;2.28;;
12206;SDS011;6166;42.806;23.408;2022-08-03T08:45:53;2.20;;;2.10;;
12206;SDS011;6166;42.806;23.408;2022-08-03T08:48:24;2.70;;;2.50;;
12206;SDS011;6166;42.806;23.408;2022-08-03T08:50:55;2.33;;;2.22;;
12206;SDS011;6166;42.806;23.408;2022-08-03T08:53:23;2.63;;;2.42;;
12206;SDS011;6166;42.806;23.408;2022-08-03T08:55:51;3.45;;;2.33;;
12206;SDS011;6166;42.806;23.408;2022-08-03T08:58:21;2.78;;;2.67;;
12206;SDS011;6166;42.806;23.408;2022-08-03T09:00:48;2.53;;;2.03;;
12206;SDS011;6166;42.806;23.408;2022-08-03T09:03:15;2.17;;;2.03;;
12206;SDS011;6166;42.806;23.408;2022-08-03T09:05:43;3.78;;;2.35;;
12206;SDS011;6166;42.806;23.408;2022-08-03T09:08:11;3.70;;;3.03;;
12206;SDS011;6166;42.806;23.408;2022-08-03T09:10:38;3.03;;;2.58;;
12206;SDS011;6166;42.806;23.408;2022-08-03T09:13:05;2.58;;;2.38;;
12206;SDS011;6166;42.806;23.408;2022-08-03T09:15:33;3.20;;;2.90;;
12206;SDS011;6166;42.806;23.408;2022-08-03T09:18:01;2.40;;;2.30;;
12206;SDS011;6166;42.806;23.408;2022-08-03T09:20:29;2.22;;;1.80;;
12206;SDS011;6166;42.806;23.408;2022-08-03T09:22:58;2.30;;;2.15;;
12206;SDS011;6166;42.806;23.408;2022-08-03T09:25:28;2.30;;;2.20;;
12206;SDS011;6166;42.806;23.408;2022-08-03T09:28:03;2.05;;;1.95;;
12206;SDS011;6166;42.806;23.408;2022-08-03T09:30:35;2.25;;;2.13;;
12206;SDS011;6166;42.806;23.408;2022-08-03T09:33:03;2.50;;;2.30;;
12206;SDS011;6166;42.806;23.408;2022-08-03T09:35:31;2.42;;;2.20;;
12206;SDS011;6166;42.806;23.408;2022-08-03T09:38:08;2.70;;;2.30;;
12206;SDS011;6166;42.806;23.408;2022-08-03T09:40:37;2.38;;;2.17;;
12206;SDS011;6166;42.806;23.408;2022-08-03T09:43:04;2.20;;;2.10;;
12206;SDS011;6166;42.806;23.408;2022-08-03T09:45:32;2.17;;;2.00;;
12206;SDS011;6166;42.806;23.408;2022-08-03T09:48:20;2.10;;;2.00;;
12206;SDS011;6166;42.806;23.408;2022-08-03T09:50:52;2.10;;;2.00;;
12206;SDS011;6166;42.806;23.408;2022-08-03T09:53:20;2.40;;;2.22;;
12206;SDS011;6166;42.806;23.408;2022-08-03T09:55:53;2.08;;;1.98;;
12206;SDS011;6166;42.806;23.408;2022-08-03T09:58:32;3.63;;;2.00;;
12206;SDS011;6166;42.806;23.408;2022-08-03T10:01:00;3.45;;;2.30;;
12206;SDS011;6166;42.806;23.408;2022-08-03T10:03:29;2.28;;;2.17;;
12206;SDS011;6166;42.806;23.408;2022-08-03T10:05:56;2.30;;;2.20;;
12206;SDS011;6166;42.806;23.408;2022-08-03T10:08:23;7.95;;;2.35;;
12206;SDS011;6166;42.806;23.408;2022-08-03T10:10:50;3.08;;;2.00;;
12206;SDS011;6166;42.806;23.408;2022-08-03T10:13:19;2.10;;;2.00;;
12206;SDS011;6166;42.806;23.408;2022-08-03T10:15:47;2.10;;;2.00;;
12206;SDS011;6166;42.806;23.408;2022-08-03T10:18:14;2.22;;;2.10;;
12206;SDS011;6166;42.806;23.408;2022-08-03T10:20:43;2.20;;;2.10;;
12206;SDS011;6166;42.806;23.408;2022-08-03T10:23:13;2.10;;;2.00;;
12206;SDS011;6166;42.806;23.408;2022-08-03T10:25:43;2.10;;;2.00;;
12206;SDS011;6166;42.806;23.408;2022-08-03T10:28:15;2.10;;;2.00;;
12206;SDS011;6166;42.806;23.408;2022-08-03T10:30:46;2.05;;;1.90;;
12206;SDS011;6166;42.806;23.408;2022-08-03T10:33:16;2.08;;;1.88;;
12206;SDS011;6166;42.806;23.408;2022-08-03T10:35:44;2.10;;;2.00;;
12206;SDS011;6166;42.806;23.408;2022-08-03T10:38:15;2.22;;;2.13;;
12206;SDS011;6166;42.806;23.408;2022-08-03T10:40:45;3.42;;;2.05;;
12206;SDS011;6166;42.806;23.408;2022-08-03T10:43:18;2.42;;;2.22;;
12206;SDS011;6166;42.806;23.408;2022-08-03T10:45:47;1.90;;;1.80;;
12206;SDS011;6166;42.806;23.408;2022-08-03T10:48:15;2.00;;;1.90;;
12206;SDS011;6166;42.806;23.408;2022-08-03T10:50:43;2.33;;;2.22;;
12206;SDS011;6166;42.806;23.408;2022-08-03T10:53:10;1.92;;;1.83;;
12206;SDS011;6166;42.806;23.408;2022-08-03T10:55:39;2.38;;;2.17;;
12206;SDS011;6166;42.806;23.408;2022-08-03T11:01:15;2.20;;;2.10;;
12206;SDS011;6166;42.806;23.408;2022-08-03T11:06:41;4.95;;;1.90;;
12206;SDS011;6166;42.806;23.408;2022-08-03T11:09:32;2.42;;;2.25;;
12206;SDS011;6166;42.806;23.408;2022-08-03T11:12:19;2.40;;;2.30;;
12206;SDS011;6166;42.806;23.408;2022-08-03T11:14:49;2.42;;;2.22;;
12206;SDS011;6166;42.806;23.408;2022-08-03T11:17:15;2.97;;;2.30;;
12206;SDS011;6166;42.806;23.408;2022-08-03T11:19:44;2.40;;;2.30;;
12206;SDS011;6166;42.806;23.408;2022-08-03T11:22:12;1.98;;;1.88;;
12206;SDS011;6166;42.806;23.408;2022-08-03T11:24:56;1.80;;;1.80;;
12206;SDS011;6166;42.806;23.408;2022-08-03T11:27:24;1.98;;;1.80;;
12206;SDS011;6166;42.806;23.408;2022-08-03T11:29:57;2.35;;;2.15;;
12206;SDS011;6166;42.806;23.408;2022-08-03T11:35:25;2.25;;;2.15;;
12206;SDS011;6166;42.806;23.408;2022-08-03T11:38:01;2.28;;;1.98;;
12206;SDS011;6166;42.806;23.408;2022-08-03T11:40:33;2.88;;;2.28;;
12206;SDS011;6166;42.806;23.408;2022-08-03T11:43:03;2.40;;;2.30;;
12206;SDS011;6166;42.806;23.408;2022-08-03T11:45:32;3.10;;;2.08;;
12206;SDS011;6166;42.806;23.408;2022-08-03T11:48:03;2.60;;;2.40;;
12206;SDS011;6166;42.806;23.408;2022-08-03T11:50:39;2.75;;;2.55;;
12206;SDS011;6166;42.806;23.408;2022-08-03T11:53:11;2.55;;;2.20;;
12206;SDS011;6166;42.806;23.408;2022-08-03T11:55:41;2.42;;;2.33;;
12206;SDS011;6166;42.806;23.408;2022-08-03T11:58:13;2.38;;;2.17;;
12206;SDS011;6166;42.806;23.408;2022-08-03T12:00:42;2.75;;;2.55;;
12206;SDS011;6166;42.806;23.408;2022-08-03T12:03:10;2.30;;;2.20;;
12206;SDS011;6166;42.806;23.408;2022-08-03T12:05:39;2.55;;;2.35;;
12206;SDS011;6166;42.806;23.408;2022-08-03T12:08:08;2.60;;;2.50;;
12206;SDS011;6166;42.806;23.408;2022-08-03T12:10:36;3.38;;;2.22;;
12206;SDS011;6166;42.806;23.408;2022-08-03T12:13:04;2.70;;;2.20;;
12206;SDS011;6166;42.806;23.408;2022-08-03T12:15:33;2.30;;;2.20;;
12206;SDS011;6166;42.806;23.408;2022-08-03T12:18:03;2.63;;;2.40;;
12206;SDS011;6166;42.806;23.408;2022-08-03T12:20:38;2.45;;;2.25;;
12206;SDS011;6166;42.806;23.408;2022-08-03T12:23:05;2.60;;;2.40;;
12206;SDS011;6166;42.806;23.408;2022-08-03T12:25:33;2.40;;;2.20;;
12206;SDS011;6166;42.806;23.408;2022-08-03T12:28:11;9.68;;;2.53;;
12206;SDS011;6166;42.806;23.408;2022-08-03T12:30:43;2.55;;;2.33;;
12206;SDS011;6166;42.806;23.408;2022-08-03T12:33:13;2.67;;;2.22;;
12206;SDS011;6166;42.806;23.408;2022-08-03T12:35:50;2.50;;;2.30;;
12206;SDS011;6166;42.806;23.408;2022-08-03T12:38:28;2.53;;;2.42;;
12206;SDS011;6166;42.806;23.408;2022-08-03T12:40:59;2.03;;;1.92;;
12206;SDS011;6166;42.806;23.408;2022-08-03T12:43:27;2.60;;;2.40;;
12206;SDS011;6166;42.806;23.408;2022-08-03T12:46:07;2.50;;;2.30;;
12206;SDS011;6166;42.806;23.408;2022-08-03T12:51:28;2.20;;;2.10;;
12206;SDS011;6166;42.806;23.408;2022-08-03T12:53:58;2.30;;;2.05;;
12206;SDS011;6166;42.806;23.408;2022-08-03T12:56:25;2.17;;;2.08;;
12206;SDS011;6166;42.806;23.408;2022-08-03T12:58:52;2.65;;;2.40;;
12206;SDS011;6166;42.806;23.408;2022-08-03T13:01:19;2.63;;;2.40;;
12206;SDS011;6166;42.806;23.408;2022-08-03T13:03:48;2.70;;;2.50;;
12206;SDS011;6166;42.806;23.408;2022-08-03T13:06:18;5.10;;;2.67;;
12206;SDS011;6166;42.806;23.408;2022-08-03T13:08:47;3.35;;;2.60;;
12206;SDS011;6166;42.806;23.408;2022-08-03T13:11:19;2.70;;;2.20;;
12206;SDS011;6166;42.806;23.408;2022-08-03T13:13:46;2.60;;;2.40;;
12206;SDS011;6166;42.806;23.408;2022-08-03T13:16:13;2.83;;;2.53;;
12206;SDS011;6166;42.806;23.408;2022-08-03T13:18:40;2.60;;;2.40;;
12206;SDS011;6166;42.806;23.408;2022-08-03T13:21:07;2.38;;;2.28;;
12206;SDS011;6166;42.806;23.408;2022-08-03T13:23:35;2.55;;;2.35;;
12206;SDS011;6166;42.806;23.408;2022-08-03T13:26:03;2.45;;;2.33;;
12206;SDS011;6166;42.806;23.408;2022-08-03T13:28:29;2.78;;;2.60;;
12206;SDS011;6166;42.806;23.408;2022-08-03T13:30:56;3.72;;;2.20;;
12206;SDS011;6166;42.806;23.408;2022-08-03T13:33:25;3.50;;;2.63;;
12206;SDS011;6166;42.806;23.408;2022-08-03T13:35:52;2.72;;;2.50;;
12206;SDS011;6166;42.806;23.408;2022-08-03T13:38:19;2.38;;;2.22;;
12206;SDS011;6166;42.806;23.408;2022-08-03T13:40:47;2.70;;;2.50;;
12206;SDS011;6166;42.806;23.408;2022-08-03T13:43:14;2.75;;;2.53;;
12206;SDS011;6166;42.806;23.408;2022-08-03T13:45:41;2.20;;;2.10;;
12206;SDS011;6166;42.806;23.408;2022-08-03T13:48:07;2.67;;;2.47;;
12206;SDS011;6166;42.806;23.408;2022-08-03T13:50:34;2.20;;;2.10;;
12206;SDS011;6166;42.806;23.408;2022-08-03T13:53:01;2.20;;;2.10;;
12206;SDS011;6166;42.806;23.408;2022-08-03T13:55:27;2.45;;;2.35;;
12206;SDS011;6166;42.806;23.408;2022-08-03T13:57:56;2.45;;;2.35;;
12206;SDS011;6166;42.806;23.408;2022-08-03T14:00:22;2.25;;;2.15;;
12206;SDS011;6166;42.806;23.408;2022-08-03T14:02:50;2.30;;;2.20;;
12206;SDS011;6166;42.806;23.408;2022-08-03T14:05:17;2.90;;;2.70;;
12206;SDS011;6166;42.806;23.408;2022-08-03T14:07:43;4.28;;;2.50;;
12206;SDS011;6166;42.806;23.408;2022-08-03T14:10:12;2.60;;;2.40;;
12206;SDS011;6166;42.806;23.408;2022-08-03T14:12:39;3.22;;;2.30;;
12206;SDS011;6166;42.806;23.408;2022-08-03T14:15:08;2.53;;;2.35;;
12206;SDS011;6166;42.806;23.408;2022-08-03T14:17:37;4.07;;;2.05;;
12206;SDS011;6166;42.806;23.408;2022-08-03T14:20:06;2.58;;;2.38;;
12206;SDS011;6166;42.806;23.408;2022-08-03T14:22:34;2.42;;;2.33;;
12206;SDS011;6166;42.806;23.408;2022-08-03T14:25:02;3.65;;;2.60;;
12206;SDS011;6166;42.806;23.408;2022-08-03T14:27:30;2.58;;;2.45;;
12206;SDS011;6166;42.806;23.408;2022-08-03T14:29:57;2.28;;;2.17;;
12206;SDS011;6166;42.806;23.408;2022-08-03T14:32:26;2.50;;;2.40;;
12206;SDS011;6166;42.806;23.408;2022-08-03T14:34:53;2.65;;;2.47;;
12206;SDS011;6166;42.806;23.408;2022-08-03T14:37:21;2.42;;;2.33;;
12206;SDS011;6166;42.806;23.408;2022-08-03T14:39:48;2.38;;;2.22;;
12206;SDS011;6166;42.806;23.408;2022-08-03T14:42:15;2.58;;;2.40;;
12206;SDS011;6166;42.806;23.408;2022-08-03T14:44:41;3.22;;;2.67;;
12206;SDS011;6166;42.806;23.408;2022-08-03T14:47:08;3.00;;;2.80;;
12206;SDS011;6166;42.806;23.408;2022-08-03T14:49:44;2.47;;;2.28;;
12206;SDS011;6166;42.806;23.408;2022-08-03T14:52:11;2.90;;;2.70;;
12206;SDS011;6166;42.806;23.408;2022-08-03T14:54:37;2.50;;;2.40;;
12206;SDS011;6166;42.806;23.408;2022-08-03T14:57:05;3.58;;;2.83;;
12206;SDS011;6166;42.806;23.408;2022-08-03T14:59:32;4.50;;;2.58;;
12206;SDS011;6166;42.806;23.408;2022-08-03T15:01:59;2.83;;;2.50;;
12206;SDS011;6166;42.806;23.408;2022-08-03T15:04:25;2.88;;;2.70;;
12206;SDS011;6166;42.806;23.408;2022-08-03T15:06:53;4.00;;;2.78;;
12206;SDS011;6166;42.806;23.408;2022-08-03T15:09:22;2.97;;;2.78;;
12206;SDS011;6166;42.806;23.408;2022-08-03T15:11:49;5.07;;;2.63;;
12206;SDS011;6166;42.806;23.408;2022-08-03T15:16:46;2.63;;;2.50;;
12206;SDS011;6166;42.806;23.408;2022-08-03T15:19:13;2.63;;;2.42;;